Eduardo Braga

Chief Scout - Cruzeiro
1 Oct 2028
Sunday
Process

Personality

Adaptability (20) Ambition (7) Controversy (12) Loyalty (9) Pressure (16) Professionalism (8) Sportsmanship (1) Temperament (15)

Profile

Coaching Style Democratic
License National A
Determination 8
Man Management 6
Motivating 14
Discipline 14
Job Satisfaction
100%
Fatigue
0%
Role Chief Scout
Wage 39.6K p/w
Contract 14.03.2030

Performance

Behaviour Good
Training Effectiveness
39%
Player Development
55%
Injury Prevention
40%
Tactical Implementation
30%

Recent Events

Attended a recruitment meeting now
Attended a recruitment meeting 7d ago
Recommended a transfer target 7d ago
Recommended a transfer target 7d ago
Attended a recruitment meeting 14d ago
Recommended a transfer target 14d ago
Recommended a transfer target 14d ago
Birthday 14d ago

Currently Monitoring

361
Player Club Status Ability Confidence Watched Last Observed Latest Vote
Luiz Fernando Fortaleza Active 128 / 128 30% 1 / 1m 23.08.2028 -
Alex Scott Bournemouth Lost 158 / 160 40% 7 19.06.2028 -
Archie Gray Southampton Active 154 / 156 40% 4 19.06.2028 -
Tiquinho Soares Corinthians Lost 121 / 117 79% 1 12.06.2028 Approve
Vanderlan Bragantino Active 120 / 124 79% 1 07.06.2028 Approve
João Pedro Chelsea Active 154 / 158 40% 1 01.06.2028 -
Jacques Ekomié Wrexham Active 138 / 138 40% 4 31.05.2028 -
Matteo Ruggeri Middlesbrough Lost 159 / 155 40% 9 31.05.2028 -
Max Bird Birmingham Active 138 / 138 40% 8 31.05.2028 -
Jeremy Sarmiento Middlesbrough Active 137 / 136 40% 1 31.05.2028 -
Manuel Ugarte Leicester City Active 150 / 147 40% 4 30.05.2028 -
Andrey Santos Bolton Wanderers Active 148 / 151 40% 4 29.05.2028 -
Mats Wieffer Brighton Active 154 / 150 40% 3 28.05.2028 -
Tino Livramento Newcastle United Active 161 / 163 40% 4 28.05.2028 -
Neco Williams Wrexham Active 148 / 147 40% 5 27.05.2028 -
Jarrad Branthwaite Everton Active 156 / 159 40% 2 27.05.2028 -
Sandro Tonali Tottenham Active 176 / 176 40% 8 25.05.2028 -
Joe Rodon Blackburn Rovers Active 143 / 145 40% 8 25.05.2028 -
Vitaly Janelt Derby County Active 146 / 145 40% 4 24.05.2028 -
Juanlu Bournemouth Lost 159 / 157 40% 3 22.05.2028 -
Youri Tielemans Manchester United Lost 162 / 165 40% 4 21.05.2028 -
Moisés Caicedo Chelsea Active 169 / 172 40% 8 20.05.2028 -
Nordi Mukiele Sunderland Active 147 / 146 40% 5 17.05.2028 -
Shea Charles Southampton Active 141 / 146 40% 4 17.05.2028 -
Kauê Furquim Boa Active 100 / 105 30% 1 / 1m 17.05.2028 -
Neto Sampaio Correa Active 87 / 87 30% 1 / 1m 17.05.2028 -
Pedro Porro Tottenham Active 161 / 152 40% 6 16.05.2028 -
Jan Paul van Hecke Tottenham Active 166 / 160 40% 4 16.05.2028 -
Callum Brittain Middlesbrough Active 140 / 136 40% 2 14.05.2028 -
Xaver Schlager Nottingham Forest Active 158 / 155 40% 1 14.05.2028 -
Jayden Bogle Leeds United Active 140 / 141 40% 6 13.05.2028 -
Óscar Mingueza Crystal Palace Active 151 / 154 40% 6 13.05.2028 -
Lamare Bogarde Reading Active 146 / 141 40% 1 13.05.2028 -
Adam Wharton Crystal Palace Lost 154 / 161 40% 4 11.05.2028 -
Welington Southampton Active 131 / 137 40% 7 10.05.2028 -
Angeliño AS Roma Active 148 / 150 40% 5 07.05.2028 -
Aaron Hickey Brentford Active 151 / 148 40% 6 06.05.2028 -
Noussair Mazraoui Manchester United Lost 164 / 155 40% 3 05.05.2028 -
Boubacar Kamara Aston Villa Active 166 / 166 40% 10 04.05.2028 -
Quinten Timber Crystal Palace Lost 163 / 155 40% 3 03.05.2028 -
Maximiliano Araújo West Ham United Active 158 / 151 40% 4 02.05.2028 -
Ryan Sessegnon Fulham Active 151 / 152 40% 2 24.04.2028 -
Manu Koné AS Roma Active 177 / 167 40% 7 22.04.2028 -
Honest Ahanor Atalanta Active 134 / 141 40% 2 22.04.2028 -
Quilindschy Hartman Burnley Active 153 / 147 40% 3 18.04.2028 -
André Wolverhampton Active 148 / 154 40% 5 16.04.2028 -
Bafodé Diakité Plymouth Argyle Active 144 / 144 40% 3 16.04.2028 -
Amadou Onana Aston Villa Active 164 / 160 40% 3 09.04.2028 -
Max Johnston Derby County Active 139 / 136 40% 4 06.04.2028 -
Vitinho Botafogo Active 135 / 137 40% 9 02.04.2028 -
Jake O'Brien Everton Active 148 / 151 40% 2 31.03.2028 -
Vitão Flamengo Active 146 / 141 40% 2 31.03.2028 -
Marcos Antonio Sport Recife Active 138 / 142 40% 7 19.03.2028 -
Souffian El Karouani Al-Qadisiyah Active 135 / 139 40% 2 18.03.2028 -
Agustín Giay Palmeiras Active 137 / 138 40% 3 18.03.2028 -
Ousmane Diomande Nottingham Forest Active 165 / 162 40% 1 18.03.2028 -
Danilo Botafogo Active 142 / 144 40% 2 16.03.2028 -
Alexandro Bernabei Internacional Active 135 / 135 40% 6 15.03.2028 -
Caio Alexandre Bahia Active 134 / 135 40% 4 12.03.2028 -
Exequiel Palacios Lazio Active 162 / 161 40% 2 11.03.2028 -
Luciano Juba Bahia Active 133 / 135 40% 3 10.03.2028 -
Reece James Chelsea Active 172 / 175 40% 2 02.03.2028 -
Arthur Flamengo Active 143 / 141 40% 3 26.02.2028 -
Lucas Piton Vasco da Gama Active 134 / 131 40% 3 25.02.2028 -
Jordan Beyer Burnley Active 146 / 139 40% 2 25.02.2028 -
Martín Zubimendi Arsenal Active 168 / 168 40% 1 16.01.2028 -
Rico Henry River Plate Active 145 / 141 40% 2 09.01.2028 -
Ryan Corinthians Lost 119 / 117 79% 1 27.12.2027 Approve
Nicolas Jackson Aston Villa Active 158 / 149 40% 3 02.12.2027 -
Gabriel Martinelli Arsenal Active 166 / 169 40% 1 02.12.2027 -
Josh Keeley Luton Town Active 138 / 135 40% 4 29.11.2027 -
Anthony Patterson Wrexham Active 139 / 136 40% 6 29.11.2027 -
Christos Mandas Lazio Active 146 / 150 40% 2 29.11.2027 -
Bernardo Lima Porto Active 108 / 119 40% 1 29.11.2027 -
Lucas Bergvall Tottenham Active 152 / 153 40% 1 29.11.2027 -
Evgeny Latyshonok Nizhniy Novgorod Active 123 / 128 40% 1 26.11.2027 -
Lukas Jensen Millwall Active 128 / 121 40% 1 26.11.2027 -
Caoimhin Kelleher Brentford Active 158 / 154 40% 15 25.11.2027 -
Patrick Schulte Columbus Crew Active 131 / 127 40% 6 24.11.2027 -
Alejandro Rodríguez Melgar Active 130 / 128 40% 5 24.11.2027 -
Roman Celentano FC Cincinnati Active 128 / 129 40% 5 23.11.2027 -
Aaron Ramsdale Southampton Active 154 / 153 40% 8 23.11.2027 -
Ezequiel Centurión River Plate Active 123 / 124 40% 8 22.11.2027 -
James Trafford Leeds United Active 148 / 148 40% 3 21.11.2027 -
Gabriel Brazão Santos Active 138 / 138 40% 8 21.11.2027 -
Dean Henderson Crystal Palace Active 159 / 156 40% 11 20.11.2027 -
Gabriel Batista Botafogo Active 131 / 129 40% 9 20.11.2027 -
Nathan Trott Cardiff City Active 126 / 133 40% 4 19.11.2027 -
Fran Vieites Walsall Active 121 / 129 40% 2 19.11.2027 -
Matt Freese Shakhtar Active 136 / 138 40% 1 19.11.2027 -
Radek Vítek Middlesbrough Active 149 / 145 40% 7 18.11.2027 -
Dayne St. Clair Inter Miami CF Active 131 / 126 40% 4 18.11.2027 -
Michele Di Gregorio Juventus Active 160 / 154 40% 5 17.11.2027 -
Carl Rushworth Aston Villa Active 151 / 147 40% 2 17.11.2027 -
Hugo Souza Corinthians Active 145 / 140 40% 10 16.11.2027 -
Nikita Haikin Bodo/Glimt Active 148 / 142 40% 8 15.11.2027 -
Leopold Wahlstedt Rosenborg Active 119 / 121 40% 1 15.11.2027 -
Oscar Steinke Brånby Hammarby Active 105 / 112 40% 1 14.11.2027 -
Matias Siltanen Malmo FF Active 120 / 128 40% 3 12.11.2027 -
Sol Brynn Bradford City Active 133 / 136 40% 3 12.11.2027 -
Kauã Moraes Flamengo Active 124 / 128 40% 4 12.11.2027 -
Carlos Coronel Fluminense Active 130 / 135 40% 9 11.11.2027 -
Lucas Arcanjo Vitória Active 134 / 128 40% 5 11.11.2027 -
Angus Gunn San Jose Earthquakes Active 128 / 125 40% 3 10.11.2027 -
Alex Meret Napoli Active 155 / 153 40% 7 06.11.2027 -
Souza Tottenham Active 131 / 136 40% 2 06.11.2027 -
Adrian Skogmar Malmo FF Active 115 / 123 40% 1 06.11.2027 -
Zack Steffen Colorado Rapids Active 128 / 129 40% 5 05.11.2027 -
Agustín Rossi Flamengo Active 140 / 139 40% 7 05.11.2027 -
Hugo Rojas Instituto Active 108 / 112 40% 1 03.11.2027 -
Martim Cunha Porto Active 111 / 116 40% 1 03.11.2027 -
Nahuel Leivas Montevideo City Torque Active 106 / 108 40% 2 02.11.2027 -
Azizbek To'lqinbekov Bunyodkor Active 98 / 105 40% 1 02.11.2027 -
Diego Enríquez Sporting Cristal Active 134 / 137 40% 6 29.10.2027 -
Lukáš Horníček Burnley Active 153 / 147 40% 4 28.10.2027 -
Carlos Miguel Palmeiras Active 140 / 138 40% 2 27.10.2027 -
Vladan Kovačević Norwich City Active 123 / 121 40% 4 26.10.2027 -
Mads Hermansen West Ham United Active 146 / 142 40% 8 23.10.2027 -
Diego Romero Universitario Active 123 / 125 40% 2 20.10.2027 -
Tomás Marchiori Zamalek Active 134 / 131 40% 2 19.10.2027 -
Caleb Yirenkyi Coventry City Active 145 / 150 40% 2 18.10.2027 -
Bart Verbruggen Liverpool Active 162 / 161 40% 1 16.10.2027 -
Gabriel Grando São Paulo Active 132 / 131 40% 4 14.10.2027 -
Giorgi Mamardashvili Liverpool Active 165 / 169 40% 2 09.10.2027 -
Robin Roefs Sunderland Active 155 / 147 40% 2 08.10.2027 -
Gonçalo Oliveira Benfica Active 111 / 128 40% 2 08.10.2027 -
Ľubomír Belko Viking Active 135 / 127 40% 5 05.10.2027 -
Léo Jardim Vasco da Gama Active 135 / 140 40% 6 03.10.2027 -
Renato Solís Sporting Cristal Active 126 / 127 40% 1 02.10.2027 -
Facundo Balatti Penarol Active 106 / 116 40% 1 02.10.2027 -
Christos Mouzakitis Hull City Active 138 / 137 40% 1 02.10.2027 -
Ayden Heaven Portsmouth Active 141 / 147 40% 2 01.10.2027 -
Josh Acheampong Everton Active 145 / 148 40% 3 29.09.2027 -
Eliás Montiel Borussia Dortmund Active 137 / 139 40% 1 28.09.2027 -
Mile Svilar AS Roma Active 171 / 166 40% 5 24.09.2027 -
Giovanni Leoni Lincoln City Active 140 / 149 40% 2 22.09.2027 -
Agustín Obregón River Plate Active 114 / 121 40% 1 22.09.2027 -
Miguel Figueiredo Benfica Active 115 / 128 40% 2 21.09.2027 -
Zion Suzuki Aston Villa Active 148 / 154 40% 4 19.09.2027 -
Victor Hernandez Santa Fe Active 120 / 122 40% 2 19.09.2027 -
Malick Yalcouyé Brighton Active 127 / 130 40% 1 19.09.2027 -
Cleiton Spartak Moscow Active 134 / 127 40% 2 16.09.2027 -
Kepa Arrizabalaga Arsenal Active 154 / 153 40% 1 16.09.2027 -
Luis Ingolotti Atlético Tucumán Active 131 / 128 40% 2 08.09.2027 -
José Cavadia Aguilas Doradas Active 106 / 117 40% 1 01.09.2027 -
Lautaro Morales Lanús Active 135 / 127 40% 2 29.08.2027 -
Luka Vušković Tottenham Active 148 / 155 40% 2 29.08.2027 -
Nazareno Roselli Defensa y Justicia Active 110 / 120 40% 1 27.08.2027 -
Álvaro Montero Al Ain Active 132 / 139 40% 1 24.08.2027 -
Mike Maignan AC Milan Active 162 / 171 40% 7 19.08.2027 -
Tommaso Cecotti Carpi Active 93 / 98 40% 1 19.08.2027 -
Jonathan Klinsmann Cesena Active 134 / 132 40% 5 15.08.2027 -
Elia Caprile Cagliari Active 153 / 155 40% 4 13.08.2027 -
Riccardo Gagno Vicenza Active 127 / 130 40% 2 12.08.2027 -
Álvaro Fernández Valencia Active 147 / 147 40% 1 10.08.2027 -
Maílson Al-Taawoun Active 134 / 137 40% 2 06.08.2027 -
Sascha Britschgi AC Milan Active 117 / 126 40% 1 06.08.2027 -
Riley Owen Stevenage Active 109 / 109 40% 1 06.08.2027 -
Mbekezeli Mbokazi Chicago Fire Active 130 / 130 40% 1 05.08.2027 -
Bruno Varela Al-Hazem Active 137 / 126 40% 4 03.08.2027 -
Oliver Dovin Coventry City Active 130 / 134 40% 2 29.07.2027 -
Alex Palmer Ipswich Town Active 130 / 130 40% 3 25.07.2027 -
Denis Adamov Zenit Active 132 / 127 40% 1 12.07.2027 -
Wellerson Oeste Active 105 / 105 42% 1 / 1m 07.07.2027 -
Kahiser Lenis Ceará Active 120 / 120 30% 1 / 1m 07.07.2027 -
Ivor Pandur Hull City Active 124 / 124 40% 2 28.06.2027 -
Grégoire Coudert Burnley Active 133 / 136 40% 1 28.06.2027 -
Joseph Leclercq Tottenham Active 155 / 152 40% 3 22.06.2027 -
Balázs Tóth Blackburn Rovers Active 131 / 134 40% 2 22.06.2027 -
Andrey Santa Cruz Active 110 / 113 79% 1 14.06.2027 Approve
Christian Walton Ipswich Town Active 125 / 130 40% 1 09.06.2027 -
Sławomir Abramowicz Jagiellonia Active 130 / 123 40% 1 04.06.2027 -
Sorba Thomas Stoke City Active 133 / 127 40% 4 31.05.2027 -
Chemsdine Talbi Sunderland Active 144 / 144 40% 4 30.05.2027 -
Che Adams Torino Active 140 / 143 40% 3 29.05.2027 -
Morgan Rogers Chelsea Active 164 / 157 40% 1 29.05.2027 -
Jack McGlynn Stoke City Active 135 / 139 40% 1 28.05.2027 -
Fer López Wolverhampton Active 128 / 135 40% 1 28.05.2027 -
Samuel Edozie Southampton Active 135 / 132 40% 2 27.05.2027 -
Eddie Nketiah Crystal Palace Active 135 / 144 40% 5 26.05.2027 -
Joe Gelhardt Hull City Active 134 / 137 40% 4 26.05.2027 -
Kevin Fulham Active 144 / 151 40% 5 26.05.2027 -
Savinho Tottenham Active 159 / 152 40% 4 26.05.2027 -
Christian Pulisic AC Milan Active 168 / 160 40% 1 26.05.2027 -
Emanuel Emegha Chelsea Active 143 / 146 40% 1 26.05.2027 -
Toby Collyer West Bromwich Albion Active 126 / 137 40% 1 25.05.2027 -
Kwadwo Baah Watford Active 123 / 133 40% 1 25.05.2027 -
Jack Rudoni Coventry City Active 140 / 135 40% 3 23.05.2027 -
Manor Solomon West Ham United Active 143 / 142 40% 3 22.05.2027 -
Fábio Carvalho Brentford Active 136 / 138 40% 1 22.05.2027 -
Tyrese Campbell Sheffield United Active 131 / 126 40% 1 22.05.2027 -
Malick Fofana Sunderland Active 149 / 150 40% 3 21.05.2027 -
Jordan Pickford Everton Active 157 / 153 40% 2 19.05.2027 -
Yeremy Pino Crystal Palace Active 147 / 148 40% 3 19.05.2027 -
Łukasz Skorupski Bologna Active 150 / 140 40% 2 19.05.2027 -
Iliman N'Diaye Everton Active 167 / 155 40% 2 19.05.2027 -
Matheus Araújo Oeste Active 93 / 93 52% 1 / 1m 19.05.2027 -
Jonas Oeste Active 77 / 82 30% 1 / 1m 19.05.2027 -
Harry Wilson Leeds United Active 146 / 145 40% 4 18.05.2027 -
Mikkel Damsgaard Brentford Active 143 / 142 40% 1 17.05.2027 -
Rodrigo Gomes Wolverhampton Active 142 / 145 40% 1 15.05.2027 -
Jacob Ramsey Newcastle United Active 147 / 153 40% 2 11.05.2027 -
Mohamed-Ali Cho Hull City Active 139 / 138 40% 5 10.05.2027 -
James Maddison Tottenham Active 153 / 156 40% 4 10.05.2027 -
Jason Knight Bristol City Active 129 / 123 40% 1 07.05.2027 -
Xavi Simons Tottenham Active 157 / 156 40% 3 04.05.2027 -
Marcus Edwards Burnley Active 143 / 139 40% 2 03.05.2027 -
Bobby Clark Derby County Active 128 / 130 40% 1 02.05.2027 -
John McGinn Aston Villa Active 154 / 149 40% 3 01.05.2027 -
Will Mannion Charlton Athletic Active 113 / 108 40% 1 30.04.2027 -
Kevin Schade Chelsea Active 154 / 154 40% 1 29.04.2027 -
Yehor Yarmoliuk Brentford Active 143 / 145 40% 2 27.04.2027 -
Giacomo Raspadori Atalanta Active 152 / 140 40% 2 25.04.2027 -
Gianluca Scamacca Atalanta Active 156 / 148 40% 2 24.04.2027 -
Leroy Sané Galatasaray Active 152 / 154 40% 2 23.04.2027 -
Ilyas Ansah Hull City Active 128 / 133 40% 2 21.04.2027 -
Murphy Cooper Plymouth Argyle Active 114 / 110 40% 2 20.04.2027 -
Jak Alnwick Huddersfield Town Active 113 / 111 40% 1 18.04.2027 -
Joel Pereira Reading Active 114 / 116 40% 1 18.04.2027 -
Marcelo Allende Mamelodi Sundowns Active 130 / 126 40% 3 16.04.2027 -
Lewis Hall Newcastle United Active 147 / 148 40% 1 15.04.2027 -
Bongani Zungu Ajax Cape Town Active 129 / 130 40% 2 14.04.2027 -
Yoane Wissa Newcastle United Active 142 / 142 40% 2 13.04.2027 -
Ianis Hagi Alanyaspor Active 122 / 132 40% 1 13.04.2027 -
Jackson Muleka Konyaspor Active 133 / 126 40% 1 13.04.2027 -
Hidemasa Morita Hull City Active 138 / 145 40% 2 11.04.2027 -
Mohamadou Kanté Crawley Town Active 117 / 123 40% 1 11.04.2027 -
Zian Flemming Ipswich Town Active 129 / 135 40% 2 10.04.2027 -
Azor Matusiwa Ipswich Town Active 136 / 134 40% 1 10.04.2027 -
Sam Bell Bristol City Active 126 / 124 40% 1 08.04.2027 -
Václav Černý Besiktas Active 147 / 142 40% 1 07.04.2027 -
Samuel Justo Sporting CP Active 112 / 111 40% 1 07.04.2027 -
Antoni Milambo Brentford Active 143 / 147 40% 1 07.04.2027 -
Nicolò Zaniolo Udinese Active 140 / 136 40% 3 05.04.2027 -
Ilias Sebaoui Sint-Truiden Active 134 / 123 40% 1 03.04.2027 -
Callum O'Hare Sheffield United Active 129 / 126 40% 1 03.04.2027 -
Malcom Al Jazira Active 146 / 151 40% 1 29.03.2027 -
Finn Azaz Southampton Active 131 / 123 40% 3 28.03.2027 -
Diogo Gonçalves Konyaspor Active 128 / 124 40% 1 28.03.2027 -
Alexander Nübel Besiktas Active 153 / 141 40% 1 28.03.2027 -
Emiliano Martínez Chelsea Active 157 / 158 40% 1 28.03.2027 -
Sorriso Famalicao Active 126 / 134 40% 6 27.03.2027 -
Carlos Forbs Club Brugge Active 128 / 131 40% 7 27.03.2027 -
Mateja Stjepanović Moreirense Active 127 / 122 40% 1 26.03.2027 -
Ricardo Horta Braga Active 151 / 141 40% 11 25.03.2027 -
Pablo Rosario Porto Active 145 / 143 40% 5 24.03.2027 -
Pepê Porto Active 144 / 140 40% 10 24.03.2027 -
Fabijan Buntić Farense Active 114 / 108 40% 1 23.03.2027 -
Sébastien Cibois Portimonense Active 109 / 107 40% 1 23.03.2027 -
Juan Soriano Académico de Viseu Active 128 / 127 40% 1 23.03.2027 -
Hwang In-Beom Porto Active 148 / 144 40% 5 22.03.2027 -
Oli McBurnie Hull City Active 140 / 134 40% 2 22.03.2027 -
Nuno Santos Sporting CP Active 136 / 138 40% 7 21.03.2027 -
Geny Sporting CP Active 153 / 145 40% 1 21.03.2027 -
Tomáš Rigo Stoke City Active 136 / 131 40% 1 21.03.2027 -
Lovro Zvonarek Estrela da Amadora Active 126 / 128 40% 1 21.03.2027 -
Sikou Niakaté Braga Active 136 / 139 40% 2 19.03.2027 -
Gustaf Lagerbielke Braga Active 135 / 138 40% 1 19.03.2027 -
Brooke Norton-Cuffy Hull City Active 132 / 144 40% 1 19.03.2027 -
Alberto Costa Porto Active 146 / 139 40% 4 17.03.2027 -
Mario Dorgeles Braga Active 137 / 135 40% 4 17.03.2027 -
Majid Jahanbakhsh Rah Ahan Active 123 / 132 40% 5 17.03.2027 -
Mateo Pellegrino Fiorentina Active 138 / 138 40% 1 15.03.2027 -
William Gomes Porto Active 137 / 151 40% 8 13.03.2027 -
Roberto Fernández Braga Active 147 / 134 40% 17 12.03.2027 -
Nicolò Cambiaghi Bologna Active 147 / 141 40% 1 12.03.2027 -
Yunus Akgün Galatasaray Active 145 / 143 40% 1 12.03.2027 -
Rafik Guitane Estoril Praia Active 139 / 136 40% 8 10.03.2027 -
Yanis Begraoui Estoril Praia Active 139 / 132 40% 16 08.03.2027 -
Victor Froholdt Porto Active 145 / 148 40% 6 08.03.2027 -
Ollie Watkins Al-Hilal Active 154 / 150 40% 2 08.03.2027 -
Enrico Delprato Parma Active 145 / 137 40% 1 08.03.2027 -
Noah Okafor Leeds United Active 143 / 135 40% 3 04.03.2027 -
Santi García Gil Vicente Active 133 / 130 40% 1 04.03.2027 -
Pau Víctor Braga Active 137 / 139 40% 11 27.02.2027 -
Samu Vitoria Guimaraes Active 126 / 125 40% 4 22.02.2027 -
Ismael Díaz Leon Active 135 / 123 40% 4 22.02.2027 -
Luís Esteves Atlas Active 131 / 135 40% 1 22.02.2027 -
Brian Brobbey Sunderland Active 147 / 145 40% 1 22.02.2027 -
Alan Varela Porto Active 144 / 151 40% 9 19.02.2027 -
Iván Fresneda Sporting CP Active 139 / 135 40% 10 18.02.2027 -
Steven Bergwijn Al-Ittihad Active 150 / 150 40% 1 18.02.2027 -
Fredrik Aursnes Benfica Active 153 / 154 40% 1 14.02.2027 -
Enzo Barrenechea Benfica Active 151 / 146 40% 8 12.02.2027 -
Jordan Holsgrove Estoril Praia Active 127 / 133 40% 1 09.02.2027 -
Dwight McNeil Crystal Palace Active 144 / 139 40% 1 02.02.2027 -
Samuel Lino Flamengo Active 145 / 136 40% 9 31.01.2027 -
Patrick Sequeira Casa Pia Active 124 / 122 40% 2 28.01.2027 -
Joan Femenías Penafiel Active 120 / 112 40% 1 28.01.2027 -
João Gonçalves Oliveirense Active 120 / 120 40% 1 28.01.2027 -
Erick Pulga Bahia Active 132 / 129 40% 1 27.01.2027 -
Brais Méndez RC Lens Active 147 / 142 40% 3 25.01.2027 -
Dodi Lukébakio Benfica Active 143 / 143 40% 9 24.01.2027 -
Carlos Álvarez Club America Active 136 / 140 40% 8 23.01.2027 -
James Garner Everton Active 148 / 152 40% 1 20.01.2027 -
Victor Sá São Paulo Active 123 / 123 40% 2 17.01.2027 -
João Palhinha Benfica Active 149 / 148 40% 8 16.01.2027 -
Leandro Barreiro Benfica Active 147 / 141 40% 12 14.01.2027 -
Dara O'Shea Ipswich Town Active 140 / 140 40% 1 11.01.2027 -
Anel Ahmedhodžić Burnley Active 130 / 130 40% 1 11.01.2027 -
Memphis Depay Corinthians Active 146 / 143 40% 6 08.01.2027 -
Amine Adli Bournemouth Active 143 / 145 40% 2 08.01.2027 -
Callum Hudson-Odoi Nottingham Forest Active 152 / 142 40% 1 02.01.2027 -
Tyrhys Dolan Espanyol Active 145 / 131 40% 2 31.12.2026 -
Esteban Lepaul Stade Rennais Active 139 / 139 40% 2 31.12.2026 -
Nehuén Pérez Porto Active 140 / 147 40% 1 31.12.2026 -
Kevin Álvarez Club America Active 134 / 131 40% 1 31.12.2026 -
Roméo Lavia Chelsea Active 139 / 147 40% 2 29.12.2026 -
Marcel Ruiz Crystal Palace Active 137 / 146 40% 1 29.12.2026 -
Crysencio Summerville Al-Hilal Active 140 / 133 40% 1 29.12.2026 -
Eduardo Quaresma Sporting CP Active 142 / 138 40% 1 29.12.2026 -
Sofiane Diop OGC Nice Active 142 / 148 40% 1 20.12.2026 -
Keane Lewis-Potter Brentford Active 140 / 150 40% 2 19.12.2026 -
Jens Petter Hauge Bodo/Glimt Active 138 / 133 40% 1 14.12.2026 -
Sergi Cardona KAA Gent Active 153 / 138 40% 1 13.12.2026 -
Andreas Schjelderup Benfica Active 139 / 139 40% 1 11.12.2026 -
Mamadou Sangaré Brentford Active 146 / 138 40% 2 09.12.2026 -
Matheus Bidu Corinthians Active 134 / 122 40% 1 03.12.2026 -
Gianluca Prestianni Benfica Active 131 / 142 40% 1 30.11.2026 -
Claudio Spinelli Vasco da Gama Active 130 / 126 40% 1 26.11.2026 -
Agustín Palavecino Cruz Azul Active 144 / 138 40% 4 24.11.2026 -
Sadio Mané Al-Nassr Active 150 / 138 40% 1 19.11.2026 -
Gustavo Silva Vitoria Guimaraes Active 118 / 128 40% 1 08.11.2026 -
Juninho Pumas UNAM Active 135 / 121 40% 1 04.11.2026 -
Víctor Gómez Braga Active 143 / 139 40% 2 01.11.2026 -
Samuel Dahl Benfica Active 140 / 134 40% 3 29.10.2026 -
Carlos Rodríguez Cruz Azul Active 142 / 140 40% 2 29.10.2026 -
Heorhii Sudakov Benfica Active 144 / 140 40% 2 24.10.2026 -
Ramón Juárez Club America Active 140 / 141 40% 1 23.10.2026 -
Bongani Khune SuperSport United Active 122 / 132 40% 2 17.10.2026 -
Luis Suárez Sporting CP Active 149 / 153 40% 3 14.10.2026 -
João Carvalho Estoril Praia Active 125 / 132 40% 2 11.10.2026 -
Fran Navarro Braga Active 122 / 127 40% 4 08.10.2026 -
Juan Muñoz Leiria Active 121 / 121 40% 2 08.10.2026 -
Arthur Cabral Botafogo Active 126 / 124 40% 3 07.10.2026 -
Neymar Santos Active 148 / 150 40% 1 07.10.2026 -
Alejandro Piedrahita Deportivo Pereira Active 124 / 125 40% 2 06.10.2026 -
Alexey Miranchuk Atlanta United FC Active 137 / 141 40% 2 28.09.2026 -
Henrique Araújo Casa Pia Active 119 / 124 40% 1 25.09.2026 -
José Manuel López Palmeiras Active 132 / 133 40% 1 22.09.2026 -
Sergi Altimira Sporting CP Active 142 / 138 40% 1 18.09.2026 -
Heung-Min Son Los Angeles Football Club Active 159 / 157 40% 2 12.09.2026 -
Héctor Hernández Gil Vicente Active 120 / 120 40% 2 12.09.2026 -
Alfonso Trezza Arouca Active 127 / 121 40% 1 12.09.2026 -
Mohammed Bouldini Académico de Viseu Active 116 / 120 40% 2 10.09.2026 -
Andreas Pereira Palmeiras Active 139 / 136 40% 1 10.09.2026 -
Dawda Camara Alverca Active 119 / 117 40% 1 10.09.2026 -
Francisco Moura Porto Active 140 / 138 40% 1 08.09.2026 -
Alexis Vega Feyenoord Active 137 / 146 40% 1 04.09.2026 -
Petar Musa FC Dallas Active 135 / 134 40% 2 02.09.2026 -
Nélson Oliveira Vitoria Guimaraes Active 119 / 120 40% 1 28.08.2026 -
André Clovis Académico de Viseu Active 113 / 125 40% 2 27.08.2026 -
Rafa Benfica Active 138 / 140 40% 2 27.08.2026 -
Vinícius Lopes Santa Clara Active 116 / 127 40% 2 26.08.2026 -
Giorgos Koutsias Famalicao Active 111 / 121 40% 1 16.08.2026 -
Figueiredo Alverca Active 133 / 130 40% 1 11.08.2026 -
Álvaro Valles Betis Active 140 / 136 40% 1 07.08.2026 -
Unai Simón Athletic Bilbao Active 156 / 161 40% 1 07.08.2026 -
Antonio Sivera Alavés Active 137 / 138 40% 1 05.08.2026 -
Lazar Carević Famalicao Active 121 / 128 40% 1 05.08.2026 -
Ignacio de Arruabarrena Arouca Active 125 / 124 40% 1 03.08.2026 -